Time;durP1;ratioP1;P1;durP2;ratioP2;P2;SDS_P1;SDS_P2;PMS_P1;PMS_P2;Temp;Humidity;BMP_temperature;BMP_pressure;BME280_temperature;BME280_humidity;BME280_pressure;Samples;Min_cycle;Max_cycle;Signal;HPM_P1;HPM_P2
2022/07/08 00:01:42;;;;;;;;;;;16.90;91.30;;;;;;5067240;28;19935;-76
2022/07/08 00:04:08;;;;;;;;;;;16.90;91.30;;;;;;5061040;28;19929;-75
2022/07/08 00:06:35;;;;;;;;;;;16.90;91.30;;;;;;5043160;28;19939;-75
2022/07/08 00:09:02;;;;;;;;;;;16.90;91.40;;;;;;5042914;28;19925;-77
2022/07/08 00:11:29;;;;;;;;;;;16.90;91.30;;;;;;5054470;28;19933;-76
2022/07/08 00:13:56;;;;;;;;;;;16.90;91.30;;;;;;5055302;28;21348;-73
2022/07/08 00:16:23;;;;;;;;;;;16.90;91.30;;;;;;5062030;28;19955;-76
2022/07/08 00:18:51;;;;;;;;;;;16.90;91.30;;;;;;5047639;28;19924;-77
2022/07/08 00:21:18;;;;;;;;;;;16.90;91.40;;;;;;5057205;28;20003;-74
2022/07/08 00:23:45;;;;;;;;;;;16.90;91.30;;;;;;5054400;28;20033;-77
2022/07/08 00:26:11;;;;;;;;;;;16.90;91.40;;;;;;5061097;28;19933;-75
2022/07/08 00:28:38;;;;;;;;;;;16.90;91.30;;;;;;5060342;28;20006;-76
2022/07/08 00:31:05;;;;;;;;;;;16.80;91.30;;;;;;5055803;28;19933;-75
2022/07/08 00:33:32;;;;;;;;;;;16.80;91.20;;;;;;5059550;28;19933;-75
2022/07/08 00:36:00;;;;;;;;;;;16.80;91.30;;;;;;5060584;28;20055;-76
2022/07/08 00:38:27;;;;;;;;;;;16.80;91.30;;;;;;5051833;28;20587;-76
2022/07/08 00:40:54;;;;;;;;;;;16.80;91.40;;;;;;5058903;28;20062;-76
2022/07/08 00:43:24;;;;;;;;;;;16.80;91.40;;;;;;5061142;28;19936;-76
2022/07/08 00:45:51;;;;;;;;;;;16.80;91.20;;;;;;5041161;28;19924;-77
2022/07/08 00:48:18;;;;;;;;;;;16.80;91.30;;;;;;5037059;28;19929;-76
2022/07/08 00:50:45;;;;;;;;;;;16.80;91.40;;;;;;5058687;28;19929;-75
2022/07/08 00:53:13;;;;;;;;;;;16.80;91.50;;;;;;5058048;28;19924;-76
2022/07/08 00:55:40;;;;;;;;;;;16.80;91.40;;;;;;5057318;28;19978;-75
2022/07/08 00:58:06;;;;;;;;;;;16.80;91.40;;;;;;5044882;28;19931;-75
2022/07/08 01:00:33;;;;;;;;;;;16.80;91.40;;;;;;5058186;28;19924;-74
2022/07/08 01:03:00;;;;;;;;;;;16.80;91.40;;;;;;5061557;28;19986;-75
2022/07/08 01:05:27;;;;;;;;;;;16.80;91.40;;;;;;5054723;28;19928;-75
2022/07/08 01:07:54;;;;;;;;;;;16.70;91.30;;;;;;5060553;28;19933;-77
2022/07/08 01:10:22;;;;;;;;;;;16.70;91.30;;;;;;5054837;28;20024;-73
2022/07/08 01:12:49;;;;;;;;;;;16.70;91.40;;;;;;5063286;28;19931;-75
2022/07/08 01:15:16;;;;;;;;;;;16.70;91.40;;;;;;5056776;28;20489;-75
2022/07/08 01:17:43;;;;;;;;;;;16.70;91.40;;;;;;5056632;28;19925;-75
2022/07/08 01:20:13;;;;;;;;;;;16.70;91.20;;;;;;5062875;28;20383;-77
2022/07/08 01:22:41;;;;;;;;;;;16.70;91.50;;;;;;5057720;28;19932;-73
2022/07/08 01:25:09;;;;;;;;;;;16.70;91.20;;;;;;5059125;28;20352;-74
2022/07/08 01:27:36;;;;;;;;;;;16.60;91.40;;;;;;5060026;28;19932;-73
2022/07/08 01:30:03;;;;;;;;;;;16.60;91.40;;;;;;5066970;28;19939;-73
2022/07/08 01:32:30;;;;;;;;;;;16.60;91.40;;;;;;5060023;28;19925;-73
2022/07/08 01:34:57;;;;;;;;;;;16.60;91.40;;;;;;5069205;28;19997;-73
2022/07/08 01:37:24;;;;;;;;;;;16.60;91.40;;;;;;5057792;28;19971;-73
2022/07/08 01:39:52;;;;;;;;;;;16.60;91.30;;;;;;5056751;28;19935;-73
2022/07/08 01:42:19;;;;;;;;;;;16.60;91.30;;;;;;5038968;28;19932;-73
2022/07/08 01:44:46;;;;;;;;;;;16.60;91.30;;;;;;5063142;28;20031;-74
2022/07/08 01:47:13;;;;;;;;;;;16.60;91.20;;;;;;5061647;28;19931;-75
2022/07/08 01:49:39;;;;;;;;;;;16.60;91.20;;;;;;5055815;28;20338;-74
2022/07/08 01:52:07;;;;;;;;;;;16.60;91.30;;;;;;5062318;28;20379;-73
2022/07/08 01:54:34;;;;;;;;;;;16.60;91.30;;;;;;5039785;28;19986;-74
2022/07/08 01:57:14;;;;;;;;;;;16.60;91.20;;;;;;5059000;28;19971;-74
2022/07/08 01:59:41;;;;;;;;;;;16.50;91.20;;;;;;5056140;28;19928;-73
2022/07/08 02:02:08;;;;;;;;;;;16.50;91.30;;;;;;5064393;28;20398;-74
2022/07/08 02:04:35;;;;;;;;;;;16.50;91.10;;;;;;5062948;28;19928;-73
2022/07/08 02:07:02;;;;;;;;;;;16.50;91.30;;;;;;5041496;28;19970;-74
2022/07/08 02:09:29;;;;;;;;;;;16.40;91.20;;;;;;5061265;28;19925;-75
2022/07/08 02:14:41;;;;;;;;;;;16.50;91.30;;;;;;5058512;28;19932;-73
2022/07/08 02:17:08;;;;;;;;;;;16.50;91.20;;;;;;5063132;28;19924;-74
2022/07/08 02:19:35;;;;;;;;;;;16.40;91.10;;;;;;5061869;28;19928;-73
2022/07/08 02:22:02;;;;;;;;;;;16.40;91.00;;;;;;5059171;28;19925;-72
2022/07/08 02:24:29;;;;;;;;;;;16.40;91.10;;;;;;5059494;28;20378;-73
2022/07/08 02:26:56;;;;;;;;;;;16.40;91.00;;;;;;5060098;28;20381;-73
2022/07/08 02:29:23;;;;;;;;;;;16.50;91.00;;;;;;5041650;28;19975;-74
2022/07/08 02:31:51;;;;;;;;;;;16.40;91.10;;;;;;5057898;28;19924;-73
2022/07/08 02:34:18;;;;;;;;;;;16.40;91.00;;;;;;5058229;28;19990;-74
2022/07/08 02:36:45;;;;;;;;;;;16.40;91.00;;;;;;5045373;28;19975;-73
2022/07/08 02:39:12;;;;;;;;;;;16.40;91.00;;;;;;5045084;28;19951;-73
2022/07/08 02:41:39;;;;;;;;;;;16.30;90.90;;;;;;5060736;28;20023;-73
2022/07/08 02:44:09;;;;;;;;;;;16.30;90.80;;;;;;5052990;28;20496;-73
2022/07/08 02:46:37;;;;;;;;;;;16.30;90.80;;;;;;5060342;28;19928;-73
2022/07/08 02:49:05;;;;;;;;;;;16.40;90.90;;;;;;5059803;28;20403;-74
2022/07/08 02:51:32;;;;;;;;;;;16.30;90.80;;;;;;5061369;28;19934;-74
2022/07/08 02:53:59;;;;;;;;;;;16.30;90.80;;;;;;5045575;28;19933;-73
2022/07/08 02:56:26;;;;;;;;;;;16.30;91.00;;;;;;5060296;28;19931;-74
2022/07/08 02:58:53;;;;;;;;;;;16.30;90.90;;;;;;5066182;28;19924;-76
2022/07/08 03:01:20;;;;;;;;;;;16.30;90.80;;;;;;5058458;28;19933;-75
2022/07/08 03:03:47;;;;;;;;;;;16.20;90.90;;;;;;5063872;28;19958;-76
2022/07/08 03:06:15;;;;;;;;;;;16.20;90.90;;;;;;5058891;28;19924;-76
2022/07/08 03:08:42;;;;;;;;;;;16.20;90.80;;;;;;5058643;28;20358;-75
2022/07/08 03:11:09;;;;;;;;;;;16.20;90.70;;;;;;5061378;28;19924;-75
2022/07/08 03:13:36;;;;;;;;;;;16.20;90.70;;;;;;5058478;28;19932;-76
2022/07/08 03:16:03;;;;;;;;;;;16.20;90.70;;;;;;5066821;28;19936;-76
2022/07/08 03:18:31;;;;;;;;;;;16.20;90.70;;;;;;5060587;28;19972;-75
2022/07/08 03:20:58;;;;;;;;;;;16.20;90.70;;;;;;5064277;28;20086;-75
2022/07/08 03:23:26;;;;;;;;;;;16.20;90.60;;;;;;5058255;28;20364;-78
2022/07/08 03:25:53;;;;;;;;;;;16.20;90.70;;;;;;5055960;28;20422;-77
2022/07/08 03:28:20;;;;;;;;;;;16.10;90.50;;;;;;5060289;28;19928;-76
2022/07/08 03:30:47;;;;;;;;;;;16.10;90.50;;;;;;5056341;28;19924;-75
2022/07/08 03:33:14;;;;;;;;;;;16.10;90.40;;;;;;5054700;28;19924;-76
2022/07/08 03:35:40;;;;;;;;;;;16.10;90.20;;;;;;5051658;28;19928;-75
2022/07/08 03:38:07;;;;;;;;;;;16.10;90.30;;;;;;5054414;28;19932;-75
2022/07/08 03:43:20;;;;;;;;;;;16.00;90.30;;;;;;5057915;28;20337;-76
2022/07/08 03:45:46;;;;;;;;;;;16.00;90.20;;;;;;5056558;28;19977;-76
2022/07/08 03:48:13;;;;;;;;;;;16.10;90.30;;;;;;5057251;28;20298;-74
2022/07/08 03:50:43;;;;;;;;;;;16.00;90.20;;;;;;5043082;28;19924;-76
2022/07/08 03:53:10;;;;;;;;;;;16.00;90.30;;;;;;5062886;28;19940;-75
2022/07/08 03:55:38;;;;;;;;;;;16.00;90.30;;;;;;5058621;28;19980;-76
2022/07/08 03:58:05;;;;;;;;;;;16.00;90.30;;;;;;5061676;28;19929;-75
2022/07/08 04:00:32;;;;;;;;;;;16.00;90.20;;;;;;5058720;28;19924;-75
2022/07/08 04:02:58;;;;;;;;;;;16.00;90.20;;;;;;5059169;28;20015;-77
2022/07/08 04:05:25;;;;;;;;;;;16.00;90.10;;;;;;5046245;28;19971;-75
2022/07/08 04:07:52;;;;;;;;;;;16.00;90.00;;;;;;5049185;28;19929;-76
2022/07/08 04:10:19;;;;;;;;;;;15.90;90.10;;;;;;5055114;28;20019;-76
2022/07/08 04:12:47;;;;;;;;;;;16.00;90.10;;;;;;5056570;28;20014;-74
2022/07/08 04:15:14;;;;;;;;;;;15.90;90.00;;;;;;5050354;28;19928;-74
2022/07/08 04:17:41;;;;;;;;;;;15.90;89.90;;;;;;5057947;28;19940;-74
2022/07/08 04:20:08;;;;;;;;;;;15.90;89.90;;;;;;5044780;28;19924;-73
2022/07/08 04:22:35;;;;;;;;;;;15.80;89.70;;;;;;5058695;28;19928;-75
2022/07/08 04:25:02;;;;;;;;;;;15.80;89.70;;;;;;5054043;28;20016;-73
2022/07/08 04:27:29;;;;;;;;;;;15.80;89.90;;;;;;5054407;28;19964;-73
2022/07/08 04:30:01;;;;;;;;;;;15.70;89.80;;;;;;5057207;28;19924;-75
2022/07/08 04:32:28;;;;;;;;;;;15.80;89.90;;;;;;5047241;28;19956;-75
2022/07/08 04:34:58;;;;;;;;;;;15.80;89.60;;;;;;5034143;28;19982;-74
2022/07/08 04:37:25;;;;;;;;;;;15.80;89.90;;;;;;5057222;28;19939;-75
2022/07/08 04:39:52;;;;;;;;;;;15.80;90.00;;;;;;5061469;28;20416;-75
2022/07/08 04:42:18;;;;;;;;;;;15.80;90.00;;;;;;5040338;28;19924;-76
2022/07/08 04:44:45;;;;;;;;;;;15.80;90.00;;;;;;5061604;28;19947;-74
2022/07/08 04:47:14;;;;;;;;;;;15.80;90.00;;;;;;5058088;28;19986;-74
2022/07/08 04:49:40;;;;;;;;;;;15.80;89.90;;;;;;5055679;28;19936;-74
2022/07/08 04:52:07;;;;;;;;;;;15.80;89.50;;;;;;5056027;28;19924;-74
2022/07/08 04:54:36;;;;;;;;;;;15.70;89.50;;;;;;5060273;28;20475;-75
2022/07/08 04:57:04;;;;;;;;;;;15.80;90.00;;;;;;5060221;28;19932;-74
2022/07/08 04:59:30;;;;;;;;;;;15.70;89.30;;;;;;5036603;28;19973;-74
2022/07/08 05:01:57;;;;;;;;;;;15.60;89.30;;;;;;5056834;28;21890;-75
2022/07/08 05:04:25;;;;;;;;;;;15.60;89.80;;;;;;5050940;28;20010;-79
2022/07/08 05:06:52;;;;;;;;;;;15.60;90.00;;;;;;5049646;28;19938;-77
2022/07/08 05:09:19;;;;;;;;;;;15.50;90.10;;;;;;5058340;28;19928;-78
2022/07/08 05:11:46;;;;;;;;;;;15.60;89.80;;;;;;5047437;28;19929;-76
2022/07/08 05:14:14;;;;;;;;;;;15.50;89.40;;;;;;5057909;28;19971;-77
2022/07/08 05:16:41;;;;;;;;;;;15.50;90.00;;;;;;5057574;28;19925;-76
2022/07/08 05:19:08;;;;;;;;;;;15.50;90.10;;;;;;5058019;28;19935;-75
2022/07/08 05:21:37;;;;;;;;;;;15.40;90.00;;;;;;5053527;28;19928;-77
2022/07/08 05:24:04;;;;;;;;;;;15.40;90.10;;;;;;5058342;28;20032;-75
2022/07/08 05:26:31;;;;;;;;;;;15.40;90.40;;;;;;5051304;28;19978;-78
2022/07/08 05:28:58;;;;;;;;;;;15.50;90.20;;;;;;5060876;28;20539;-76
2022/07/08 05:31:25;;;;;;;;;;;15.50;90.20;;;;;;5059233;28;19980;-77
2022/07/08 05:33:52;;;;;;;;;;;15.50;90.20;;;;;;5056462;28;19935;-75
2022/07/08 05:36:19;;;;;;;;;;;15.50;90.20;;;;;;5047941;28;19978;-76
2022/07/08 05:38:47;;;;;;;;;;;15.50;90.20;;;;;;5050115;28;19932;-76
2022/07/08 05:41:14;;;;;;;;;;;15.50;90.20;;;;;;5054555;28;19948;-76
2022/07/08 05:43:41;;;;;;;;;;;15.50;90.60;;;;;;5060351;28;19947;-78
2022/07/08 05:46:07;;;;;;;;;;;15.50;90.20;;;;;;5054229;28;19974;-75
2022/07/08 05:48:34;;;;;;;;;;;15.60;90.30;;;;;;5034712;28;20027;-75
2022/07/08 05:51:01;;;;;;;;;;;15.60;90.20;;;;;;5059985;28;20361;-76
2022/07/08 05:53:28;;;;;;;;;;;15.60;90.00;;;;;;5050963;28;20026;-77
2022/07/08 05:55:56;;;;;;;;;;;15.60;89.90;;;;;;5058388;28;19924;-77
2022/07/08 05:58:23;;;;;;;;;;;15.70;89.80;;;;;;5064325;28;19928;-76
2022/07/08 06:00:50;;;;;;;;;;;15.70;89.90;;;;;;5063606;28;19968;-76
2022/07/08 06:03:17;;;;;;;;;;;15.70;90.00;;;;;;5055762;28;19924;-77
2022/07/08 06:05:44;;;;;;;;;;;15.70;89.90;;;;;;5058158;28;19933;-76
2022/07/08 06:08:10;;;;;;;;;;;15.70;89.80;;;;;;5062730;28;20417;-76
2022/07/08 06:10:37;;;;;;;;;;;15.70;89.80;;;;;;5059780;28;19954;-77
2022/07/08 06:13:05;;;;;;;;;;;15.70;89.80;;;;;;5060697;28;20379;-76
2022/07/08 06:15:32;;;;;;;;;;;15.80;90.00;;;;;;5060025;28;19972;-75
2022/07/08 06:17:59;;;;;;;;;;;15.90;89.90;;;;;;5045917;28;19925;-76
2022/07/08 06:20:26;;;;;;;;;;;15.90;89.70;;;;;;5049925;28;19930;-76
2022/07/08 06:22:53;;;;;;;;;;;15.80;89.60;;;;;;5060936;28;19932;-76
2022/07/08 06:25:21;;;;;;;;;;;15.80;89.60;;;;;;5062791;28;20026;-76
2022/07/08 06:27:47;;;;;;;;;;;15.80;89.50;;;;;;5058691;28;19932;-75
2022/07/08 06:30:16;;;;;;;;;;;15.80;89.30;;;;;;5051846;28;20381;-76
2022/07/08 06:32:43;;;;;;;;;;;15.80;89.20;;;;;;5052966;28;19932;-75
2022/07/08 06:35:10;;;;;;;;;;;15.80;89.10;;;;;;5061069;28;19931;-77
2022/07/08 06:37:37;;;;;;;;;;;15.80;89.00;;;;;;5057884;28;20294;-76
2022/07/08 06:40:05;;;;;;;;;;;15.80;89.00;;;;;;5058686;28;19932;-76
2022/07/08 06:42:31;;;;;;;;;;;15.80;88.80;;;;;;5058926;28;19925;-76
2022/07/08 06:45:02;;;;;;;;;;;15.80;88.70;;;;;;5038338;28;20300;-77
2022/07/08 06:47:31;;;;;;;;;;;15.80;88.60;;;;;;5055141;28;19924;-76
2022/07/08 06:49:57;;;;;;;;;;;15.80;88.30;;;;;;5058776;28;20026;-77
2022/07/08 06:52:24;;;;;;;;;;;15.80;88.40;;;;;;5062031;28;20432;-78
2022/07/08 06:54:51;;;;;;;;;;;15.80;88.50;;;;;;5058028;28;19939;-76
2022/07/08 06:57:21;;;;;;;;;;;15.80;88.30;;;;;;5042687;28;20024;-77
2022/07/08 06:59:48;;;;;;;;;;;15.80;89.20;;;;;;5061637;28;19929;-76
2022/07/08 07:02:16;;;;;;;;;;;15.80;88.40;;;;;;5061097;28;20437;-76
2022/07/08 07:04:44;;;;;;;;;;;15.80;88.20;;;;;;5056482;28;19932;-77
2022/07/08 07:07:12;;;;;;;;;;;15.90;88.50;;;;;;5063121;28;19948;-76
2022/07/08 07:09:39;;;;;;;;;;;15.90;88.50;;;;;;5066330;28;20019;-78
2022/07/08 07:12:07;;;;;;;;;;;15.90;88.50;;;;;;5063832;28;19928;-75
2022/07/08 07:14:33;;;;;;;;;;;15.90;88.50;;;;;;5059426;28;20178;-76
2022/07/08 07:17:00;;;;;;;;;;;15.90;88.50;;;;;;5039592;28;19931;-75
2022/07/08 07:19:28;;;;;;;;;;;15.90;88.40;;;;;;5058858;28;20383;-76
2022/07/08 07:21:56;;;;;;;;;;;15.90;88.30;;;;;;5052490;28;19932;-76
2022/07/08 07:24:23;;;;;;;;;;;15.90;88.30;;;;;;5051856;28;20390;-75
2022/07/08 07:26:50;;;;;;;;;;;15.90;88.40;;;;;;5051645;28;20035;-76
2022/07/08 07:29:16;;;;;;;;;;;15.90;88.40;;;;;;5059750;28;20017;-75
2022/07/08 07:31:43;;;;;;;;;;;16.00;88.40;;;;;;5039850;28;20417;-78
2022/07/08 07:34:10;;;;;;;;;;;16.00;88.40;;;;;;5057592;28;20318;-75
2022/07/08 07:36:37;;;;;;;;;;;16.00;88.40;;;;;;5079385;28;19924;-75
2022/07/08 07:39:07;;;;;;;;;;;15.90;88.30;;;;;;5058049;28;19932;-78
2022/07/08 07:41:34;;;;;;;;;;;16.00;88.50;;;;;;5055911;28;20000;-75
2022/07/08 07:44:01;;;;;;;;;;;16.00;89.10;;;;;;5056968;28;19979;-75
2022/07/08 07:46:28;;;;;;;;;;;16.00;88.40;;;;;;5055424;28;19943;-77
2022/07/08 07:48:55;;;;;;;;;;;16.00;88.40;;;;;;5058951;28;19939;-78
2022/07/08 07:51:22;;;;;;;;;;;16.00;88.50;;;;;;5056758;28;19986;-77
2022/07/08 07:53:49;;;;;;;;;;;16.00;88.50;;;;;;5057196;28;19964;-75
2022/07/08 07:56:17;;;;;;;;;;;16.00;88.60;;;;;;5057951;28;20144;-76
2022/07/08 07:58:44;;;;;;;;;;;16.00;88.50;;;;;;5057604;28;19928;-78
2022/07/08 08:01:11;;;;;;;;;;;16.00;88.60;;;;;;5057797;28;19928;-75
2022/07/08 08:03:38;;;;;;;;;;;16.00;88.60;;;;;;5056897;28;19928;-76
2022/07/08 08:06:05;;;;;;;;;;;16.00;88.70;;;;;;5059004;28;19981;-76
2022/07/08 08:08:32;;;;;;;;;;;16.00;88.60;;;;;;5050183;28;19924;-76
2022/07/08 08:11:00;;;;;;;;;;;16.00;88.60;;;;;;5058491;28;19939;-76
2022/07/08 08:13:28;;;;;;;;;;;16.00;88.60;;;;;;5060624;28;19925;-78
2022/07/08 08:15:55;;;;;;;;;;;16.10;88.70;;;;;;5059367;28;20027;-76
2022/07/08 08:18:22;;;;;;;;;;;16.00;88.60;;;;;;5060137;28;20405;-75
2022/07/08 08:20:49;;;;;;;;;;;16.10;88.60;;;;;;5040997;28;19924;-75
2022/07/08 08:23:16;;;;;;;;;;;16.10;88.70;;;;;;5063939;28;19932;-76
2022/07/08 08:25:43;;;;;;;;;;;16.10;88.60;;;;;;5044324;28;19924;-77
2022/07/08 08:28:10;;;;;;;;;;;16.10;88.70;;;;;;5058528;28;20038;-75
2022/07/08 08:30:39;;;;;;;;;;;16.10;88.60;;;;;;5055781;28;19951;-76
2022/07/08 08:33:06;;;;;;;;;;;16.10;88.70;;;;;;5060468;28;19924;-75
2022/07/08 08:35:33;;;;;;;;;;;16.10;88.60;;;;;;5040951;28;19930;-75
2022/07/08 08:38:00;;;;;;;;;;;16.10;88.50;;;;;;5054733;28;19928;-75
2022/07/08 08:40:28;;;;;;;;;;;16.10;88.60;;;;;;5056664;28;20379;-76
2022/07/08 08:42:55;;;;;;;;;;;16.10;88.60;;;;;;5037272;28;21244;-76
2022/07/08 08:45:22;;;;;;;;;;;16.10;88.60;;;;;;5054869;28;19924;-76
2022/07/08 08:47:51;;;;;;;;;;;16.10;88.50;;;;;;5059028;28;20402;-75
2022/07/08 08:53:04;;;;;;;;;;;16.20;88.70;;;;;;5062274;28;19928;-76
2022/07/08 08:55:31;;;;;;;;;;;16.20;88.70;;;;;;5058890;28;19939;-76
2022/07/08 08:57:59;;;;;;;;;;;16.20;88.80;;;;;;5043057;28;19925;-75
2022/07/08 09:00:26;;;;;;;;;;;16.20;88.60;;;;;;5058397;28;19928;-76
2022/07/08 09:02:55;;;;;;;;;;;16.20;88.40;;;;;;5064023;28;20371;-75
2022/07/08 09:05:23;;;;;;;;;;;16.20;88.50;;;;;;5066638;28;19986;-76
2022/07/08 09:07:50;;;;;;;;;;;16.20;88.60;;;;;;5062966;28;19924;-77
2022/07/08 09:10:17;;;;;;;;;;;16.20;88.60;;;;;;5061627;28;20346;-76
2022/07/08 09:13:00;;;;;;;;;;;16.30;88.80;;;;;;5061628;28;19928;-75
2022/07/08 09:15:31;;;;;;;;;;;16.30;88.70;;;;;;5056006;28;20384;-76
2022/07/08 09:18:01;;;;;;;;;;;16.30;88.70;;;;;;5051146;28;19940;-76
2022/07/08 09:20:37;;;;;;;;;;;16.30;88.70;;;;;;5053233;28;19928;-77
2022/07/08 09:23:04;;;;;;;;;;;16.30;88.70;;;;;;5055593;28;19959;-75
2022/07/08 09:25:31;;;;;;;;;;;16.30;88.60;;;;;;5045911;28;20406;-76
2022/07/08 09:27:59;;;;;;;;;;;16.30;88.70;;;;;;5052853;28;20051;-77
2022/07/08 09:30:28;;;;;;;;;;;16.30;88.70;;;;;;5055826;28;19928;-76
2022/07/08 09:33:00;;;;;;;;;;;16.40;88.80;;;;;;5052124;28;19924;-76
2022/07/08 09:35:36;;;;;;;;;;;16.40;88.80;;;;;;5053099;28;19929;-76
2022/07/08 09:38:04;;;;;;;;;;;16.40;88.70;;;;;;5062205;28;19932;-77
2022/07/08 09:40:33;;;;;;;;;;;16.40;88.70;;;;;;5057204;28;19933;-76
2022/07/08 09:43:04;;;;;;;;;;;16.40;88.60;;;;;;5057472;28;19928;-75
2022/07/08 09:45:33;;;;;;;;;;;16.40;88.20;;;;;;5043310;28;19932;-75
2022/07/08 09:48:04;;;;;;;;;;;16.40;88.40;;;;;;5062665;28;20404;-76
2022/07/08 09:50:36;;;;;;;;;;;16.40;87.50;;;;;;5065933;28;20027;-77
2022/07/08 09:53:14;;;;;;;;;;;16.40;86.40;;;;;;5049849;28;20469;-76
2022/07/08 09:55:42;;;;;;;;;;;16.40;86.90;;;;;;5063334;28;19925;-76
2022/07/08 09:58:12;;;;;;;;;;;16.40;86.70;;;;;;5063326;28;19931;-76
2022/07/08 10:00:40;;;;;;;;;;;16.40;87.20;;;;;;5061284;28;19924;-77
2022/07/08 10:03:10;;;;;;;;;;;16.40;87.00;;;;;;5059219;28;19924;-75
2022/07/08 10:05:38;;;;;;;;;;;16.40;87.10;;;;;;5065478;28;19986;-77
2022/07/08 10:08:07;;;;;;;;;;;16.40;87.50;;;;;;5059950;28;20011;-75
2022/07/08 10:10:35;;;;;;;;;;;16.40;87.50;;;;;;5057478;28;20492;-77
2022/07/08 10:13:03;;;;;;;;;;;16.50;87.60;;;;;;5061391;28;19939;-76
2022/07/08 10:15:31;;;;;;;;;;;16.40;86.70;;;;;;5059446;28;19929;-76
2022/07/08 10:18:00;;;;;;;;;;;16.40;86.90;;;;;;5056249;28;19933;-76
2022/07/08 10:20:31;;;;;;;;;;;16.50;87.10;;;;;;5056722;28;19925;-75
2022/07/08 10:23:00;;;;;;;;;;;16.50;87.20;;;;;;5040141;28;19932;-75
2022/07/08 10:25:28;;;;;;;;;;;16.50;87.40;;;;;;5057104;28;20011;-75
2022/07/08 10:28:04;;;;;;;;;;;16.50;87.50;;;;;;5044441;28;19932;-75
2022/07/08 10:30:43;;;;;;;;;;;16.50;87.40;;;;;;5062899;28;19936;-75
2022/07/08 10:33:11;;;;;;;;;;;16.50;87.20;;;;;;5063089;28;20406;-77
2022/07/08 10:35:57;;;;;;;;;;;16.50;87.00;;;;;;5060254;28;20002;-77
2022/07/08 10:38:29;;;;;;;;;;;16.50;86.60;;;;;;5061818;28;19925;-76
2022/07/08 10:40:56;;;;;;;;;;;16.50;86.80;;;;;;5040578;28;19929;-76
2022/07/08 10:43:24;;;;;;;;;;;16.50;86.40;;;;;;5059066;28;19932;-76
2022/07/08 10:46:04;;;;;;;;;;;16.50;86.70;;;;;;5058553;28;19925;-75
2022/07/08 10:48:46;;;;;;;;;;;16.60;87.00;;;;;;5041392;28;20453;-75
2022/07/08 10:51:29;;;;;;;;;;;16.50;86.90;;;;;;5060064;28;20119;-76
2022/07/08 10:53:58;;;;;;;;;;;16.60;87.00;;;;;;5060493;28;19939;-77
2022/07/08 10:56:39;;;;;;;;;;;16.60;86.50;;;;;;5045198;28;19924;-76
2022/07/08 10:59:16;;;;;;;;;;;16.60;86.50;;;;;;5053719;28;20015;-77
2022/07/08 11:01:43;;;;;;;;;;;16.60;86.50;;;;;;5042825;28;19936;-77
2022/07/08 11:04:19;;;;;;;;;;;16.60;86.60;;;;;;5064239;28;19924;-75
2022/07/08 11:06:46;;;;;;;;;;;16.60;86.70;;;;;;5047182;28;20482;-76
2022/07/08 11:09:22;;;;;;;;;;;16.60;86.70;;;;;;5058291;28;19931;-77
2022/07/08 11:11:49;;;;;;;;;;;16.60;86.70;;;;;;5042671;28;21426;-76
2022/07/08 11:14:16;;;;;;;;;;;16.70;86.90;;;;;;5058921;28;19932;-75
2022/07/08 11:16:43;;;;;;;;;;;16.70;86.70;;;;;;5056902;28;19928;-75
2022/07/08 11:19:09;;;;;;;;;;;16.70;86.00;;;;;;5059521;28;20306;-76
2022/07/08 11:21:36;;;;;;;;;;;16.70;85.80;;;;;;5061078;28;19936;-76
2022/07/08 11:24:04;;;;;;;;;;;16.70;85.80;;;;;;5053629;28;19936;-76
2022/07/08 11:26:32;;;;;;;;;;;16.70;86.10;;;;;;5062514;28;20390;-76
2022/07/08 11:28:59;;;;;;;;;;;16.70;86.40;;;;;;5056036;28;19950;-76
2022/07/08 11:31:26;;;;;;;;;;;16.70;86.50;;;;;;5061701;28;19943;-76
2022/07/08 11:33:53;;;;;;;;;;;16.80;86.30;;;;;;5056833;28;19925;-76
2022/07/08 11:36:20;;;;;;;;;;;16.80;86.40;;;;;;5055741;28;19924;-75
2022/07/08 11:38:48;;;;;;;;;;;16.80;86.60;;;;;;5061735;28;19937;-76
2022/07/08 11:41:15;;;;;;;;;;;16.80;86.30;;;;;;5057375;28;19928;-74
2022/07/08 11:43:44;;;;;;;;;;;16.80;86.70;;;;;;5061535;28;20417;-73
2022/07/08 11:46:15;;;;;;;;;;;16.90;86.50;;;;;;5057459;28;19933;-74
2022/07/08 11:48:42;;;;;;;;;;;16.90;86.30;;;;;;5056934;28;19939;-74
2022/07/08 11:51:13;;;;;;;;;;;16.80;86.20;;;;;;5053759;28;19960;-74
2022/07/08 11:53:41;;;;;;;;;;;16.90;86.20;;;;;;5046947;28;19982;-73
2022/07/08 11:56:09;;;;;;;;;;;16.90;85.70;;;;;;5043469;28;19981;-73
2022/07/08 11:58:37;;;;;;;;;;;16.90;85.90;;;;;;5058834;28;20629;-74
2022/07/08 12:01:07;;;;;;;;;;;16.90;86.00;;;;;;5050956;28;19928;-74
2022/07/08 12:03:36;;;;;;;;;;;17.00;86.20;;;;;;5058874;28;19928;-73
2022/07/08 12:06:06;;;;;;;;;;;17.00;85.90;;;;;;5056624;28;21519;-74
2022/07/08 12:08:41;;;;;;;;;;;17.00;86.10;;;;;;5055249;28;19936;-74
2022/07/08 12:11:13;;;;;;;;;;;17.00;86.20;;;;;;5057679;28;20896;-73
2022/07/08 12:13:41;;;;;;;;;;;17.10;86.50;;;;;;5066354;28;19956;-74
2022/07/08 12:16:10;;;;;;;;;;;17.10;86.20;;;;;;5064661;28;19928;-73
2022/07/08 12:18:37;;;;;;;;;;;17.20;86.00;;;;;;5059636;28;20876;-74
2022/07/08 12:21:17;;;;;;;;;;;17.20;86.10;;;;;;5057748;28;20015;-74
2022/07/08 12:23:44;;;;;;;;;;;17.20;86.30;;;;;;5058366;28;19932;-73
2022/07/08 12:26:12;;;;;;;;;;;17.20;86.50;;;;;;5057386;28;19928;-74
2022/07/08 12:28:39;;;;;;;;;;;17.30;86.40;;;;;;5062003;28;19954;-74
2022/07/08 12:31:06;;;;;;;;;;;17.30;85.90;;;;;;5055566;28;20486;-73
2022/07/08 12:33:34;;;;;;;;;;;17.30;85.70;;;;;;5059816;28;19928;-74
2022/07/08 12:36:02;;;;;;;;;;;17.40;86.00;;;;;;5058855;28;20356;-74
2022/07/08 12:38:30;;;;;;;;;;;17.40;85.90;;;;;;5059123;28;20029;-74
2022/07/08 12:40:57;;;;;;;;;;;17.40;86.20;;;;;;5059331;28;19928;-74
2022/07/08 12:43:30;;;;;;;;;;;17.40;86.30;;;;;;5056662;28;19962;-74
2022/07/08 12:45:57;;;;;;;;;;;17.50;86.60;;;;;;5057425;28;19928;-74
2022/07/08 12:48:25;;;;;;;;;;;17.50;86.70;;;;;;5065835;28;19978;-74
2022/07/08 12:50:53;;;;;;;;;;;17.60;86.60;;;;;;5070617;28;19928;-73
2022/07/08 12:53:20;;;;;;;;;;;17.50;86.30;;;;;;5071318;28;19924;-75
2022/07/08 12:55:47;;;;;;;;;;;17.60;86.60;;;;;;5068260;28;19931;-74
2022/07/08 12:58:14;;;;;;;;;;;17.70;86.70;;;;;;5067135;28;19979;-74
2022/07/08 13:00:42;;;;;;;;;;;17.70;86.10;;;;;;5067761;28;19931;-75
2022/07/08 13:03:08;;;;;;;;;;;17.80;85.90;;;;;;5070471;28;19935;-72
2022/07/08 13:05:35;;;;;;;;;;;17.80;86.00;;;;;;5071867;28;19924;-74
2022/07/08 13:08:04;;;;;;;;;;;17.80;86.20;;;;;;5060656;28;20363;-74
2022/07/08 13:10:31;;;;;;;;;;;17.90;86.20;;;;;;5061155;28;19935;-75
2022/07/08 13:12:58;;;;;;;;;;;17.90;86.10;;;;;;5053098;28;19947;-74
2022/07/08 13:15:25;;;;;;;;;;;17.90;85.80;;;;;;5068250;28;20015;-74
2022/07/08 13:17:52;;;;;;;;;;;18.00;86.30;;;;;;5073628;28;20023;-74
2022/07/08 13:20:20;;;;;;;;;;;18.00;86.20;;;;;;5068775;28;19924;-75
2022/07/08 13:22:47;;;;;;;;;;;18.00;86.30;;;;;;5064596;28;19932;-74
2022/07/08 13:25:15;;;;;;;;;;;18.10;86.50;;;;;;5067593;28;19928;-75
2022/07/08 13:27:45;;;;;;;;;;;18.10;86.00;;;;;;5068042;28;19943;-74
2022/07/08 13:30:12;;;;;;;;;;;18.20;86.20;;;;;;5072726;28;20015;-74
2022/07/08 13:32:40;;;;;;;;;;;18.20;86.50;;;;;;5069172;28;19924;-74
2022/07/08 13:37:35;;;;;;;;;;;18.30;87.10;;;;;;5054720;22;19932;-74
2022/07/08 13:40:02;;;;;;;;;;;18.30;86.70;;;;;;5061194;28;20607;-75
2022/07/08 13:42:30;;;;;;;;;;;18.30;86.00;;;;;;5025274;28;20285;-74
2022/07/08 13:44:57;;;;;;;;;;;18.40;86.10;;;;;;5021760;28;19929;-74
2022/07/08 13:47:24;;;;;;;;;;;18.40;86.20;;;;;;5025209;28;19925;-74
2022/07/08 13:49:51;;;;;;;;;;;18.50;86.50;;;;;;5042309;28;19925;-74
2022/07/08 13:52:18;;;;;;;;;;;18.50;86.40;;;;;;5022016;28;19929;-74
2022/07/08 13:54:45;;;;;;;;;;;18.50;86.30;;;;;;5021734;28;19952;-74
2022/07/08 13:57:12;;;;;;;;;;;18.60;86.70;;;;;;5028891;28;19979;-74
2022/07/08 13:59:40;;;;;;;;;;;18.60;86.70;;;;;;5027226;28;19925;-74
2022/07/08 14:02:08;;;;;;;;;;;18.70;86.30;;;;;;5028079;28;19936;-75
2022/07/08 14:04:35;;;;;;;;;;;18.70;86.10;;;;;;5022297;28;20362;-74
2022/07/08 14:07:02;;;;;;;;;;;18.80;86.40;;;;;;5024960;28;20012;-73
2022/07/08 14:09:29;;;;;;;;;;;18.90;86.10;;;;;;5031990;28;20419;-75
2022/07/08 14:11:56;;;;;;;;;;;18.90;86.10;;;;;;5023830;28;19929;-73
2022/07/08 14:14:24;;;;;;;;;;;19.00;85.00;;;;;;5033306;28;20070;-75
2022/07/08 14:16:52;;;;;;;;;;;19.10;85.10;;;;;;5019269;28;19926;-74
2022/07/08 14:19:19;;;;;;;;;;;19.10;85.20;;;;;;5026531;28;20292;-74
2022/07/08 14:21:46;;;;;;;;;;;19.10;85.30;;;;;;5026988;28;19926;-73
2022/07/08 14:24:14;;;;;;;;;;;19.20;85.60;;;;;;5018663;28;19961;-74
2022/07/08 14:26:41;;;;;;;;;;;19.30;85.70;;;;;;5029183;28;19929;-73
2022/07/08 14:29:08;;;;;;;;;;;19.40;85.60;;;;;;5022270;28;19979;-74
2022/07/08 14:31:35;;;;;;;;;;;19.40;84.90;;;;;;5033075;28;19932;-74